Time;durP1;ratioP1;P1;durP2;ratioP2;P2;SDS_P1;SDS_P2;PMS_P1;PMS_P2;Temp;Humidity;BMP_temperature;BMP_pressure;BME280_temperature;BME280_humidity;BME280_pressure;Samples;Min_cycle;Max_cycle;Signal;HPM_P1;HPM_P2
2021/07/26 01:34:40;;;;;;;7.03;4.13;;;;;;;;;;5088454;28;20371;-73
2021/07/26 01:37:06;;;;;;;6.70;4.03;;;;;;;;;;5087900;28;20214;-73
2021/07/26 01:39:33;;;;;;;13.23;4.90;;;;;;;;;;5089096;28;20299;-74
2021/07/26 01:41:59;;;;;;;6.28;3.95;;;;;;;;;;5089366;28;20208;-73
2021/07/26 01:44:25;;;;;;;5.30;3.90;;;;;;;;;;5088615;28;20204;-73
2021/07/26 01:46:59;;;;;;;6.95;3.95;;;;;;;;;;5089192;28;20211;-74
2021/07/26 01:49:32;;;;;;;7.25;3.90;;;;;;;;;;5089038;28;20220;-74
2021/07/26 01:51:58;;;;;;;7.22;4.22;;;;;;;;;;5088967;28;20236;-71
2021/07/26 01:54:25;;;;;;;5.95;3.65;;;;;;;;;;5088080;28;20220;-71
2021/07/26 01:56:52;;;;;;;6.13;3.50;;;;;;;;;;5087547;28;20303;-73
2021/07/26 01:59:18;;;;;;;5.72;3.80;;;;;;;;;;5088808;28;20311;-73
2021/07/26 02:01:44;;;;;;;6.10;3.72;;;;;;;;;;5088675;28;20196;-72
2021/07/26 02:04:11;;;;;;;4.00;3.03;;;;;;;;;;5088054;28;20292;-72
2021/07/26 02:06:37;;;;;;;5.68;3.63;;;;;;;;;;5087253;28;20292;-72
2021/07/26 02:09:04;;;;;;;6.00;4.03;;;;;;;;;;5088325;28;20713;-72
2021/07/26 02:11:30;;;;;;;4.60;3.00;;;;;;;;;;5088615;28;20287;-72
2021/07/26 02:13:57;;;;;;;4.05;3.13;;;;;;;;;;5087644;28;20284;-73
2021/07/26 02:16:23;;;;;;;7.63;3.50;;;;;;;;;;5087759;28;20223;-73
2021/07/26 02:18:50;;;;;;;4.85;3.28;;;;;;;;;;5087626;28;20220;-73
2021/07/26 02:21:16;;;;;;;4.90;3.45;;;;;;;;;;5088153;28;20200;-74
2021/07/26 02:23:44;;;;;;;4.25;3.50;;;;;;;;;;5088050;28;20216;-72
2021/07/26 02:26:10;;;;;;;7.75;3.92;;;;;;;;;;5088573;28;20634;-74
2021/07/26 02:28:36;;;;;;;6.53;4.30;;;;;;;;;;5087291;28;20325;-73
2021/07/26 02:31:03;;;;;;;5.28;3.78;;;;;;;;;;5086845;28;20204;-72
2021/07/26 02:33:29;;;;;;;7.13;3.92;;;;;;;;;;5097983;28;20227;-72
2021/07/26 02:35:56;;;;;;;9.00;4.70;;;;;;;;;;5090308;28;20280;-72
2021/07/26 02:38:22;;;;;;;6.47;4.40;;;;;;;;;;5108619;28;20259;-72
2021/07/26 02:40:48;;;;;;;7.50;4.53;;;;;;;;;;5109055;28;20295;-73
2021/07/26 02:43:15;;;;;;;8.20;5.38;;;;;;;;;;5106891;28;20235;-73
2021/07/26 02:45:41;;;;;;;7.43;4.75;;;;;;;;;;5095400;28;20210;-73
2021/07/26 02:48:08;;;;;;;10.70;5.50;;;;;;;;;;5080594;28;20252;-73
2021/07/26 02:50:35;;;;;;;9.47;5.57;;;;;;;;;;5074484;28;20284;-73
2021/07/26 02:53:01;;;;;;;10.77;6.07;;;;;;;;;;5090099;28;20225;-73
2021/07/26 02:55:29;;;;;;;10.13;5.40;;;;;;;;;;5083330;28;20193;-73
2021/07/26 02:57:58;;;;;;;9.50;5.60;;;;;;;;;;5094790;28;20224;-73
2021/07/26 03:00:24;;;;;;;10.60;4.90;;;;;;;;;;5093714;28;20204;-74
2021/07/26 03:02:51;;;;;;;9.10;5.70;;;;;;;;;;5094577;28;20253;-73
2021/07/26 03:05:17;;;;;;;8.90;5.27;;;;;;;;;;5092936;28;20284;-73
2021/07/26 03:07:44;;;;;;;9.10;5.73;;;;;;;;;;5094267;28;20226;-73
2021/07/26 03:10:10;;;;;;;10.63;5.88;;;;;;;;;;5076554;28;20205;-73
2021/07/26 03:12:37;;;;;;;13.45;6.30;;;;;;;;;;5093009;28;20224;-73
2021/07/26 03:15:05;;;;;;;13.43;6.10;;;;;;;;;;5093486;28;20647;-73
2021/07/26 03:17:31;;;;;;;12.00;7.03;;;;;;;;;;5093714;28;20224;-73
2021/07/26 03:19:57;;;;;;;12.10;7.03;;;;;;;;;;5092989;28;20234;-73
2021/07/26 03:22:43;;;;;;;10.40;6.17;;;;;;;;;;5094162;28;20291;-73
2021/07/26 03:25:09;;;;;;;12.33;6.67;;;;;;;;;;5093307;28;20285;-73
2021/07/26 03:27:35;;;;;;;10.83;6.17;;;;;;;;;;5094033;28;20236;-73
2021/07/26 03:30:02;;;;;;;15.30;7.07;;;;;;;;;;5093509;28;20226;-73
2021/07/26 03:32:28;;;;;;;10.67;6.77;;;;;;;;;;5093537;28;20644;-73
2021/07/26 03:34:55;;;;;;;12.57;6.80;;;;;;;;;;5093648;28;20231;-73
2021/07/26 03:37:21;;;;;;;12.60;6.57;;;;;;;;;;5094206;28;20288;-73
2021/07/26 03:39:47;;;;;;;12.57;6.90;;;;;;;;;;5094167;28;20204;-73
2021/07/26 03:42:14;;;;;;;9.77;5.97;;;;;;;;;;5093271;28;20236;-73
2021/07/26 03:44:40;;;;;;;11.03;6.33;;;;;;;;;;5066925;28;20200;-73
2021/07/26 03:47:07;;;;;;;9.00;6.00;;;;;;;;;;5093430;28;20207;-73
2021/07/26 03:49:33;;;;;;;8.85;5.35;;;;;;;;;;5093522;28;20699;-73
2021/07/26 03:51:59;;;;;;;9.63;5.43;;;;;;;;;;5093592;28;20258;-73
2021/07/26 03:54:26;;;;;;;16.35;5.75;;;;;;;;;;5092730;28;20221;-73
2021/07/26 03:56:55;;;;;;;7.72;5.05;;;;;;;;;;5092570;28;20207;-73
2021/07/26 03:59:22;;;;;;;10.38;5.95;;;;;;;;;;5092982;28;20225;-73
2021/07/26 04:01:48;;;;;;;10.35;6.32;;;;;;;;;;5093695;28;20211;-73
2021/07/26 04:04:16;;;;;;;10.18;6.05;;;;;;;;;;5092541;28;20703;-73
2021/07/26 04:06:47;;;;;;;6.68;5.00;;;;;;;;;;5093360;28;20354;-73
2021/07/26 04:09:13;;;;;;;16.95;5.93;;;;;;;;;;5092207;28;20232;-73
2021/07/26 04:11:41;;;;;;;7.35;5.22;;;;;;;;;;5093038;28;20205;-73
2021/07/26 04:14:09;;;;;;;10.45;5.50;;;;;;;;;;5091155;28;20220;-73
2021/07/26 04:16:35;;;;;;;7.90;5.23;;;;;;;;;;5092723;28;20209;-73
2021/07/26 04:19:03;;;;;;;9.50;5.50;;;;;;;;;;5091551;28;20717;-73
2021/07/26 04:21:30;;;;;;;23.50;5.90;;;;;;;;;;5091666;28;20210;-73
2021/07/26 04:23:56;;;;;;;8.63;5.07;;;;;;;;;;5092112;28;20207;-73
2021/07/26 04:26:23;;;;;;;11.55;4.82;;;;;;;;;;5091457;28;20204;-73
2021/07/26 04:28:49;;;;;;;8.25;5.25;;;;;;;;;;5092913;28;20216;-73
2021/07/26 04:31:16;;;;;;;11.13;5.78;;;;;;;;;;5092562;28;20211;-73
2021/07/26 04:33:42;;;;;;;8.48;5.75;;;;;;;;;;5091953;28;20228;-73
2021/07/26 04:36:09;;;;;;;9.50;5.57;;;;;;;;;;5092586;28;20577;-73
2021/07/26 04:38:35;;;;;;;8.77;5.82;;;;;;;;;;5092356;28;20224;-73
2021/07/26 04:41:02;;;;;;;7.82;4.88;;;;;;;;;;5092228;28;20288;-73
2021/07/26 04:43:28;;;;;;;10.45;5.75;;;;;;;;;;5091761;28;20235;-73
2021/07/26 04:45:55;;;;;;;9.23;4.93;;;;;;;;;;5092230;28;20578;-73
2021/07/26 04:48:22;;;;;;;8.43;5.60;;;;;;;;;;5075711;28;20296;-73
2021/07/26 04:50:48;;;;;;;8.73;5.00;;;;;;;;;;5071995;28;20241;-73
2021/07/26 04:53:15;;;;;;;7.28;4.40;;;;;;;;;;5071682;28;20292;-73
2021/07/26 04:55:41;;;;;;;7.85;5.05;;;;;;;;;;5082903;28;20295;-73
2021/07/26 04:58:07;;;;;;;6.20;4.38;;;;;;;;;;5091187;28;20712;-73
2021/07/26 05:00:34;;;;;;;6.60;4.13;;;;;;;;;;5092109;28;20213;-72
2021/07/26 05:03:00;;;;;;;7.97;5.00;;;;;;;;;;5090947;28;20618;-73
2021/07/26 05:05:27;;;;;;;6.65;4.25;;;;;;;;;;5091461;28;20679;-73
2021/07/26 05:07:53;;;;;;;9.35;5.50;;;;;;;;;;5091610;28;20315;-74
2021/07/26 05:10:19;;;;;;;10.30;5.13;;;;;;;;;;5090797;28;20208;-74
2021/07/26 05:12:46;;;;;;;7.63;4.60;;;;;;;;;;5092049;28;20196;-73
2021/07/26 05:15:12;;;;;;;8.13;5.30;;;;;;;;;;5089755;28;20734;-73
2021/07/26 05:17:38;;;;;;;6.30;3.90;;;;;;;;;;5091707;28;20299;-74
2021/07/26 05:20:05;;;;;;;8.32;4.32;;;;;;;;;;5090629;28;20284;-74
2021/07/26 05:22:32;;;;;;;8.82;5.32;;;;;;;;;;5091828;28;20295;-74
2021/07/26 05:24:58;;;;;;;6.65;4.53;;;;;;;;;;5091235;28;20296;-74
2021/07/26 05:27:28;;;;;;;8.43;4.90;;;;;;;;;;5090669;28;20705;-74
2021/07/26 05:29:54;;;;;;;7.90;4.68;;;;;;;;;;5071645;28;20649;-73
2021/07/26 05:32:21;;;;;;;7.93;4.70;;;;;;;;;;5081807;28;20215;-73
2021/07/26 05:34:48;;;;;;;10.10;5.38;;;;;;;;;;5080566;28;20216;-73
2021/07/26 05:37:15;;;;;;;9.32;4.72;;;;;;;;;;5087997;28;20194;-73
2021/07/26 05:39:42;;;;;;;7.82;4.63;;;;;;;;;;5072117;28;20281;-72
2021/07/26 05:42:10;;;;;;;6.30;4.78;;;;;;;;;;5069821;28;20201;-73
2021/07/26 05:44:37;;;;;;;6.88;4.38;;;;;;;;;;5069297;28;20586;-73
2021/07/26 05:47:04;;;;;;;8.55;4.80;;;;;;;;;;5076446;28;20214;-73
2021/07/26 05:49:30;;;;;;;9.88;5.18;;;;;;;;;;5091158;28;20656;-72
2021/07/26 05:51:57;;;;;;;8.50;5.35;;;;;;;;;;5091217;28;20702;-72
2021/07/26 05:54:23;;;;;;;10.32;5.43;;;;;;;;;;5090714;28;20236;-73
2021/07/26 05:56:53;;;;;;;11.00;6.00;;;;;;;;;;5091263;28;20205;-74
2021/07/26 05:59:20;;;;;;;11.82;5.75;;;;;;;;;;5091310;28;20307;-74
2021/07/26 06:01:49;;;;;;;10.25;5.53;;;;;;;;;;5080192;28;20201;-74
2021/07/26 06:04:22;;;;;;;8.15;5.32;;;;;;;;;;5071132;28;20204;-74
2021/07/26 06:06:52;;;;;;;9.27;4.90;;;;;;;;;;5089141;28;20204;-73
2021/07/26 06:09:19;;;;;;;9.77;5.30;;;;;;;;;;5088761;28;20295;-73
2021/07/26 06:11:51;;;;;;;8.40;4.60;;;;;;;;;;5090079;28;20301;-73
2021/07/26 06:14:18;;;;;;;10.13;6.03;;;;;;;;;;5089387;28;20280;-73
2021/07/26 06:16:46;;;;;;;9.18;5.93;;;;;;;;;;5088823;28;20211;-73
2021/07/26 06:19:15;;;;;;;9.50;5.38;;;;;;;;;;5090324;28;20312;-73
2021/07/26 06:21:57;;;;;;;7.18;4.28;;;;;;;;;;5075640;28;20247;-73
2021/07/26 06:24:24;;;;;;;7.68;4.72;;;;;;;;;;5086580;28;20262;-73
2021/07/26 06:26:57;;;;;;;9.93;5.15;;;;;;;;;;5092730;28;20197;-73
2021/07/26 06:29:24;;;;;;;8.88;5.22;;;;;;;;;;5093366;28;20220;-73
2021/07/26 06:31:51;;;;;;;10.60;4.93;;;;;;;;;;5090611;28;20299;-73
2021/07/26 06:34:17;;;;;;;9.65;5.60;;;;;;;;;;5092909;28;20696;-73
2021/07/26 06:36:44;;;;;;;8.88;4.90;;;;;;;;;;5093615;28;20291;-73
2021/07/26 06:39:11;;;;;;;8.35;5.00;;;;;;;;;;5090083;28;20710;-73
2021/07/26 06:41:38;;;;;;;8.45;5.07;;;;;;;;;;5092498;28;20200;-73
2021/07/26 06:44:04;;;;;;;8.32;4.68;;;;;;;;;;5093488;28;20292;-73
2021/07/26 06:46:30;;;;;;;8.13;4.40;;;;;;;;;;5092372;28;20236;-73
2021/07/26 06:48:57;;;;;;;8.18;4.97;;;;;;;;;;5093841;28;20603;-73
2021/07/26 06:51:23;;;;;;;8.40;5.00;;;;;;;;;;5093820;28;20605;-73
2021/07/26 06:53:50;;;;;;;8.68;5.28;;;;;;;;;;5093103;28;20761;-74
2021/07/26 06:56:16;;;;;;;10.90;4.78;;;;;;;;;;5092154;28;20228;-74
2021/07/26 06:58:45;;;;;;;9.02;5.18;;;;;;;;;;5086101;28;20250;-71
2021/07/26 16:16:26;;;;;;;3.65;2.08;;;;;;;;;;5110940;28;20233;-71
2021/07/26 16:18:52;;;;;;;9.25;5.25;;;;;;;;;;5110513;28;20219;-71
2021/07/26 16:21:19;;;;;;;5.65;3.70;;;;;;;;;;5092933;28;20303;-70
2021/07/26 16:23:45;;;;;;;2.85;2.13;;;;;;;;;;5110873;28;20200;-71
2021/07/26 16:26:11;;;;;;;3.38;2.33;;;;;;;;;;5110348;28;20224;-73
2021/07/26 16:28:38;;;;;;;3.92;2.75;;;;;;;;;;5109986;28;20349;-71
2021/07/26 16:31:04;;;;;;;4.35;2.38;;;;;;;;;;5110417;28;20228;-73
2021/07/26 16:33:31;;;;;;;5.45;3.85;;;;;;;;;;5109052;28;20218;-73
2021/07/26 16:35:57;;;;;;;3.13;2.30;;;;;;;;;;5091405;28;20211;-71
2021/07/26 16:38:24;;;;;;;2.92;2.17;;;;;;;;;;5109806;28;20224;-72
2021/07/26 16:40:50;;;;;;;4.20;3.72;;;;;;;;;;5110306;28;20224;-70
2021/07/26 16:43:18;;;;;;;6.00;3.78;;;;;;;;;;5109999;28;20348;-70
2021/07/26 16:45:44;;;;;;;15.65;7.65;;;;;;;;;;5110740;28;20219;-70
2021/07/26 16:48:11;;;;;;;4.85;3.20;;;;;;;;;;5075519;28;20225;-71
2021/07/26 16:50:38;;;;;;;3.85;2.33;;;;;;;;;;5111126;28;20576;-71
2021/07/26 16:53:05;;;;;;;4.45;3.00;;;;;;;;;;5109705;28;20288;-71
2021/07/26 16:55:31;;;;;;;2.28;2.00;;;;;;;;;;5108476;28;20277;-73
2021/07/26 16:57:58;;;;;;;6.45;3.40;;;;;;;;;;5090761;28;20307;-74
2021/07/26 17:00:26;;;;;;;7.75;5.25;;;;;;;;;;5108982;28;20346;-69
2021/07/26 17:02:56;;;;;;;8.05;5.40;;;;;;;;;;5109340;28;20204;-68
2021/07/26 17:05:22;;;;;;;23.35;11.55;;;;;;;;;;5090531;28;20239;-70
2021/07/26 17:07:49;;;;;;;4.40;3.70;;;;;;;;;;5108187;28;20247;-69
2021/07/26 17:10:15;;;;;;;2.58;2.10;;;;;;;;;;5108975;28;20239;-69
2021/07/26 17:12:42;;;;;;;3.42;2.42;;;;;;;;;;5109064;28;20660;-71
2021/07/26 17:15:09;;;;;;;3.53;2.00;;;;;;;;;;5108475;28;20214;-71
2021/07/26 17:17:36;;;;;;;3.40;2.33;;;;;;;;;;5108645;28;20231;-70
2021/07/26 17:20:03;;;;;;;3.15;2.42;;;;;;;;;;5108554;28;20652;-71
2021/07/26 17:22:29;;;;;;;3.50;1.95;;;;;;;;;;5110148;28;20203;-71
2021/07/26 17:24:56;;;;;;;2.72;2.15;;;;;;;;;;5108287;28;20579;-72
2021/07/26 17:27:23;;;;;;;2.78;1.92;;;;;;;;;;5090335;28;20264;-72
2021/07/26 17:29:49;;;;;;;2.15;1.60;;;;;;;;;;5108286;28;20204;-72
2021/07/26 17:32:15;;;;;;;1.95;1.65;;;;;;;;;;5109422;28;20275;-71
2021/07/26 17:34:42;;;;;;;2.45;1.75;;;;;;;;;;5108051;28;20220;-72
2021/07/26 17:37:08;;;;;;;3.35;2.17;;;;;;;;;;5108235;28;20224;-73
2021/07/26 17:39:35;;;;;;;2.42;1.67;;;;;;;;;;5109191;28;20292;-72
2021/07/26 17:42:04;;;;;;;4.22;2.03;;;;;;;;;;5109014;28;20294;-75
2021/07/26 17:44:32;;;;;;;13.65;9.07;;;;;;;;;;5108964;28;20629;-73
2021/07/26 17:46:59;;;;;;;28.00;15.55;;;;;;;;;;5109919;28;20195;-69
2021/07/26 17:49:25;;;;;;;17.13;11.10;;;;;;;;;;5108391;28;20311;-71
2021/07/26 17:51:52;;;;;;;89.53;50.08;;;;;;;;;;5109364;28;20283;-69
2021/07/26 17:54:20;;;;;;;35.28;19.98;;;;;;;;;;5108278;28;20236;-73
2021/07/26 17:56:46;;;;;;;14.05;9.15;;;;;;;;;;5108290;28;20204;-74
2021/07/26 17:59:12;;;;;;;3.63;2.55;;;;;;;;;;5090906;28;20336;-74
2021/07/26 18:01:39;;;;;;;4.28;2.80;;;;;;;;;;5107270;28;20242;-71
2021/07/26 18:04:06;;;;;;;3.90;2.28;;;;;;;;;;5107629;28;20204;-70
2021/07/26 18:06:32;;;;;;;4.05;2.10;;;;;;;;;;5107370;28;20219;-70
2021/07/26 18:08:59;;;;;;;3.75;2.40;;;;;;;;;;5107608;28;20319;-71
2021/07/26 18:11:26;;;;;;;31.42;19.27;;;;;;;;;;5089859;28;20699;-69
2021/07/26 18:13:52;;;;;;;13.65;8.48;;;;;;;;;;5107641;28;20212;-70
2021/07/26 18:16:18;;;;;;;5.03;3.65;;;;;;;;;;5091291;28;20237;-72
2021/07/26 18:18:45;;;;;;;18.13;11.02;;;;;;;;;;5093732;28;20247;-72
2021/07/26 18:21:12;;;;;;;6.18;3.95;;;;;;;;;;5111329;28;20234;-74
2021/07/26 18:23:40;;;;;;;8.07;6.20;;;;;;;;;;5111169;28;20335;-72
2021/07/26 18:26:06;;;;;;;8.05;4.05;;;;;;;;;;5110873;28;20294;-71
2021/07/26 18:28:33;;;;;;;4.50;2.47;;;;;;;;;;5111806;28;20683;-70
2021/07/26 18:31:00;;;;;;;10.85;5.60;;;;;;;;;;5093115;28;20794;-72
2021/07/26 18:33:28;;;;;;;3.53;2.13;;;;;;;;;;5092837;28;20645;-72
2021/07/26 18:35:55;;;;;;;3.85;2.03;;;;;;;;;;5111990;28;20343;-70
2021/07/26 18:38:21;;;;;;;3.42;1.92;;;;;;;;;;5074068;28;20266;-72
2021/07/26 18:40:48;;;;;;;2.50;1.55;;;;;;;;;;5080018;28;20246;-74
2021/07/26 18:43:15;;;;;;;2.42;1.63;;;;;;;;;;5095089;28;20212;-72
2021/07/26 18:45:42;;;;;;;2.67;1.60;;;;;;;;;;5113071;28;20251;-70
2021/07/26 18:48:08;;;;;;;4.20;1.98;;;;;;;;;;5112305;28;20322;-70
2021/07/26 18:50:35;;;;;;;1.75;1.30;;;;;;;;;;5094423;28;20298;-72
2021/07/26 18:53:04;;;;;;;1.83;1.45;;;;;;;;;;5093482;28;20290;-72
2021/07/26 18:55:30;;;;;;;2.75;1.58;;;;;;;;;;5112033;28;20271;-70
2021/07/26 18:57:57;;;;;;;4.20;1.80;;;;;;;;;;5111985;28;20224;-70
2021/07/26 19:00:23;;;;;;;4.60;1.92;;;;;;;;;;5112377;28;20669;-70
2021/07/26 19:02:50;;;;;;;4.03;1.70;;;;;;;;;;5113210;28;20608;-72
2021/07/26 19:05:16;;;;;;;3.42;2.00;;;;;;;;;;5112473;28;20224;-72
2021/07/26 19:07:43;;;;;;;2.53;1.77;;;;;;;;;;5112891;28;20220;-74
2021/07/26 19:10:12;;;;;;;3.58;2.03;;;;;;;;;;5095119;28;20262;-74
2021/07/26 19:12:40;;;;;;;3.72;2.38;;;;;;;;;;5113395;28;20239;-73
2021/07/26 19:15:07;;;;;;;4.13;1.90;;;;;;;;;;5110909;28;20238;-74
2021/07/26 19:17:34;;;;;;;2.83;1.73;;;;;;;;;;5092545;28;20303;-73
2021/07/26 19:20:05;;;;;;;2.50;1.75;;;;;;;;;;5092684;28;20736;-72
2021/07/26 19:22:32;;;;;;;2.38;1.67;;;;;;;;;;5112796;28;20298;-70
2021/07/26 19:24:58;;;;;;;5.75;2.22;;;;;;;;;;5112442;28;20199;-75
2021/07/26 19:27:31;;;;;;;3.22;2.10;;;;;;;;;;5113213;28;20306;-71
2021/07/26 19:29:57;;;;;;;2.45;1.73;;;;;;;;;;5111117;28;20210;-71
2021/07/26 19:32:23;;;;;;;2.28;1.83;;;;;;;;;;5112600;28;20282;-71
2021/07/26 19:34:51;;;;;;;3.08;1.60;;;;;;;;;;5110286;28;20632;-71
2021/07/26 19:37:17;;;;;;;1.98;1.70;;;;;;;;;;5113211;28;20199;-72
2021/07/26 19:39:44;;;;;;;2.45;1.83;;;;;;;;;;5113301;28;20214;-71
2021/07/26 19:42:11;;;;;;;2.53;1.70;;;;;;;;;;5113128;28;20207;-70
2021/07/26 19:44:40;;;;;;;3.15;2.15;;;;;;;;;;5112566;28;20204;-71
2021/07/26 19:47:06;;;;;;;3.45;1.88;;;;;;;;;;5112829;28;20767;-70
2021/07/26 19:49:33;;;;;;;2.63;1.88;;;;;;;;;;5113215;28;20790;-69
2021/07/26 19:52:00;;;;;;;4.97;2.30;;;;;;;;;;5113144;28;20203;-70
2021/07/26 19:54:26;;;;;;;3.25;2.05;;;;;;;;;;5112028;28;20290;-69
2021/07/26 19:56:53;;;;;;;2.83;1.98;;;;;;;;;;5113005;28;20648;-69
2021/07/26 19:59:23;;;;;;;3.25;2.08;;;;;;;;;;5095373;28;20238;-70
2021/07/26 20:01:49;;;;;;;2.63;2.00;;;;;;;;;;5112735;28;20218;-71
2021/07/26 20:04:16;;;;;;;2.70;2.03;;;;;;;;;;5112410;28;20215;-69
2021/07/26 20:06:42;;;;;;;2.67;2.00;;;;;;;;;;5112790;28;20228;-69
2021/07/26 20:09:08;;;;;;;2.22;1.80;;;;;;;;;;5112864;28;20228;-68
2021/07/26 20:11:35;;;;;;;2.67;1.77;;;;;;;;;;5112848;28;20286;-71
2021/07/26 20:14:01;;;;;;;3.15;1.70;;;;;;;;;;5112154;28;20298;-71
2021/07/26 20:16:31;;;;;;;2.97;1.90;;;;;;;;;;5112575;28;20705;-70
2021/07/26 20:18:57;;;;;;;2.25;1.55;;;;;;;;;;5112255;28;20320;-69
2021/07/26 20:21:24;;;;;;;2.40;1.80;;;;;;;;;;5112380;28;20665;-70
2021/07/26 20:23:50;;;;;;;2.80;2.00;;;;;;;;;;5111951;28;20250;-69
2021/07/26 20:26:16;;;;;;;2.63;1.83;;;;;;;;;;5112428;28;20715;-71
2021/07/26 20:28:43;;;;;;;1.55;1.35;;;;;;;;;;5112213;28;20276;-71
2021/07/26 20:31:10;;;;;;;3.72;2.22;;;;;;;;;;5111767;28;20924;-71
2021/07/26 20:33:39;;;;;;;3.05;1.70;;;;;;;;;;5111227;28;20238;-69
2021/07/26 20:36:05;;;;;;;7.28;2.60;;;;;;;;;;5112207;28;20204;-69
2021/07/26 20:38:33;;;;;;;3.20;1.85;;;;;;;;;;5111550;28;20318;-69
2021/07/26 20:40:59;;;;;;;5.28;2.13;;;;;;;;;;5112298;28;20215;-69
2021/07/26 20:43:26;;;;;;;2.85;2.08;;;;;;;;;;5110534;27;20196;-70
2021/07/26 20:45:54;;;;;;;3.08;1.98;;;;;;;;;;5103664;27;20219;-70
2021/07/26 20:48:20;;;;;;;2.75;1.63;;;;;;;;;;5120748;27;20702;-70
2021/07/26 20:50:47;;;;;;;2.28;1.88;;;;;;;;;;5120964;27;20275;-69
2021/07/26 20:53:13;;;;;;;3.65;2.03;;;;;;;;;;5112325;27;20279;-69
2021/07/26 20:55:40;;;;;;;3.22;1.90;;;;;;;;;;5111229;28;20282;-69
2021/07/26 20:58:06;;;;;;;2.78;1.80;;;;;;;;;;5111284;28;20243;-71
2021/07/26 21:00:44;;;;;;;3.75;2.28;;;;;;;;;;5112205;28;20204;-72
2021/07/26 21:03:10;;;;;;;3.35;2.15;;;;;;;;;;5111520;28;20676;-71
2021/07/26 21:05:39;;;;;;;4.25;2.20;;;;;;;;;;5111616;28;20298;-72
2021/07/26 21:08:06;;;;;;;3.05;2.17;;;;;;;;;;5111299;28;20219;-72
2021/07/26 21:10:33;;;;;;;3.70;1.90;;;;;;;;;;5111637;28;20295;-71
2021/07/26 21:12:59;;;;;;;2.65;1.55;;;;;;;;;;5093163;28;20221;-70
2021/07/26 21:15:27;;;;;;;3.08;2.10;;;;;;;;;;5110682;28;20204;-70
2021/07/26 21:17:55;;;;;;;3.40;2.03;;;;;;;;;;5107344;28;20236;-70
2021/07/26 21:20:22;;;;;;;2.78;1.90;;;;;;;;;;5108381;27;21523;-70
2021/07/26 21:22:48;;;;;;;3.05;1.85;;;;;;;;;;5111639;28;20200;-69
2021/07/26 21:25:15;;;;;;;2.80;1.90;;;;;;;;;;5110682;28;20196;-70
2021/07/26 21:27:42;;;;;;;4.22;2.10;;;;;;;;;;5111887;28;20253;-70
2021/07/26 21:30:09;;;;;;;2.80;2.13;;;;;;;;;;5111987;28;20239;-70
2021/07/26 21:32:36;;;;;;;2.22;1.60;;;;;;;;;;5111644;28;20207;-72
2021/07/26 21:35:02;;;;;;;2.90;1.77;;;;;;;;;;5111182;28;20203;-72
2021/07/26 21:37:29;;;;;;;3.63;1.77;;;;;;;;;;5111572;28;20310;-72
2021/07/26 21:39:56;;;;;;;2.33;1.80;;;;;;;;;;5111920;28;20206;-71
2021/07/26 21:42:22;;;;;;;1.83;1.40;;;;;;;;;;5112029;28;20290;-72
2021/07/26 21:44:49;;;;;;;2.67;1.45;;;;;;;;;;5111151;28;20204;-72
2021/07/26 21:47:17;;;;;;;2.25;1.40;;;;;;;;;;5111557;28;20612;-73
2021/07/26 21:49:43;;;;;;;2.15;1.65;;;;;;;;;;5112680;28;20214;-72
2021/07/26 21:52:23;;;;;;;2.15;1.05;;;;;;;;;;5116163;28;20273;-72
2021/07/26 21:54:50;;;;;;;1.25;1.08;;;;;;;;;;5115075;28;20727;-71
2021/07/26 21:57:16;;;;;;;2.17;1.42;;;;;;;;;;5115870;28;20210;-72
2021/07/26 21:59:42;;;;;;;2.25;1.05;;;;;;;;;;5116029;28;20200;-71
2021/07/26 22:02:09;;;;;;;1.13;0.98;;;;;;;;;;5115729;28;20218;-72
2021/07/26 22:04:35;;;;;;;1.17;0.93;;;;;;;;;;5114820;28;20204;-71
2021/07/26 22:07:02;;;;;;;1.50;1.00;;;;;;;;;;5115801;28;20231;-69
2021/07/26 22:09:29;;;;;;;1.30;0.80;;;;;;;;;;5115571;28;20619;-70
2021/07/26 22:11:55;;;;;;;1.20;1.10;;;;;;;;;;5115821;28;20278;-68
2021/07/26 22:14:27;;;;;;;1.13;0.82;;;;;;;;;;5114687;28;20206;-68
2021/07/26 22:16:54;;;;;;;1.55;0.90;;;;;;;;;;5115771;28;20203;-70
2021/07/26 22:19:21;;;;;;;2.17;1.30;;;;;;;;;;5115327;28;20225;-70
2021/07/26 22:21:48;;;;;;;1.90;1.27;;;;;;;;;;5114373;28;20203;-69
2021/07/26 22:24:14;;;;;;;1.73;1.02;;;;;;;;;;5115011;28;20204;-70
2021/07/26 22:26:41;;;;;;;1.98;1.10;;;;;;;;;;5115413;28;20262;-70
2021/07/26 22:29:07;;;;;;;2.78;1.30;;;;;;;;;;5115230;28;20226;-70
2021/07/26 22:31:33;;;;;;;1.48;1.08;;;;;;;;;;5115093;28;20204;-70
2021/07/26 22:34:00;;;;;;;3.40;1.27;;;;;;;;;;5114180;28;20678;-70
2021/07/26 22:36:26;;;;;;;1.88;1.10;;;;;;;;;;5115076;28;20214;-69
2021/07/26 22:38:52;;;;;;;1.80;1.17;;;;;;;;;;5115160;28;20230;-70
2021/07/26 22:41:19;;;;;;;1.27;1.00;;;;;;;;;;5097280;28;20200;-70
2021/07/26 22:43:45;;;;;;;1.25;0.90;;;;;;;;;;5114510;28;20287;-69
2021/07/26 22:46:11;;;;;;;1.60;1.25;;;;;;;;;;5114852;28;20250;-71
2021/07/26 22:48:38;;;;;;;1.88;0.88;;;;;;;;;;5114902;28;20265;-71
2021/07/26 22:51:04;;;;;;;2.10;0.95;;;;;;;;;;5115044;28;20200;-71
2021/07/26 22:53:31;;;;;;;2.33;1.13;;;;;;;;;;5114332;28;20302;-72
2021/07/26 22:55:57;;;;;;;1.90;1.20;;;;;;;;;;5114778;28;20199;-72
2021/07/26 22:58:24;;;;;;;1.73;1.20;;;;;;;;;;5114770;28;20220;-72
2021/07/26 23:00:51;;;;;;;3.72;1.73;;;;;;;;;;5114416;28;20200;-71
2021/07/26 23:03:17;;;;;;;1.88;1.33;;;;;;;;;;5114209;28;20254;-72
2021/07/26 23:05:44;;;;;;;1.55;1.25;;;;;;;;;;5114592;28;20622;-72
2021/07/26 23:08:10;;;;;;;1.65;1.20;;;;;;;;;;5114789;28;20730;-71
2021/07/26 23:10:37;;;;;;;1.65;1.30;;;;;;;;;;5114757;28;20212;-72
2021/07/26 23:13:03;;;;;;;1.08;0.82;;;;;;;;;;5114675;28;20196;-71
2021/07/26 23:15:29;;;;;;;3.40;1.13;;;;;;;;;;5114070;28;20204;-72
2021/07/26 23:17:56;;;;;;;2.60;1.25;;;;;;;;;;5114640;28;20224;-72
2021/07/26 23:20:22;;;;;;;1.27;1.10;;;;;;;;;;5114519;28;20218;-72
2021/07/26 23:22:48;;;;;;;2.92;1.40;;;;;;;;;;5114263;28;20203;-72
2021/07/26 23:25:15;;;;;;;1.45;1.30;;;;;;;;;;5113451;28;20207;-71
2021/07/26 23:27:41;;;;;;;1.75;1.45;;;;;;;;;;5114116;28;20318;-70
2021/07/26 23:30:08;;;;;;;2.80;1.38;;;;;;;;;;5113873;28;20210;-70
2021/07/26 23:32:34;;;;;;;2.83;1.70;;;;;;;;;;5114023;28;20218;-70
2021/07/26 23:35:01;;;;;;;3.28;1.65;;;;;;;;;;5095439;28;20200;-70
2021/07/26 23:37:27;;;;;;;2.50;1.35;;;;;;;;;;5114169;28;20298;-70
2021/07/26 23:39:54;;;;;;;2.17;1.23;;;;;;;;;;5113870;28;20639;-70
2021/07/26 23:42:21;;;;;;;6.82;1.85;;;;;;;;;;5114125;28;20200;-70
2021/07/26 23:44:47;;;;;;;2.10;1.40;;;;;;;;;;5113172;28;20204;-70
2021/07/26 23:47:13;;;;;;;5.40;1.48;;;;;;;;;;5113488;28;20222;-70
2021/07/26 23:49:41;;;;;;;4.00;1.70;;;;;;;;;;5114004;28;20199;-69
2021/07/26 23:52:08;;;;;;;4.63;1.60;;;;;;;;;;5114061;28;20200;-69
2021/07/26 23:54:34;;;;;;;2.50;1.42;;;;;;;;;;5113125;28;20203;-70
2021/07/26 23:57:01;;;;;;;2.03;1.42;;;;;;;;;;5113668;28;20652;-69
2021/07/26 23:59:31;;;;;;;3.58;2.10;;;;;;;;;;5113559;28;20215;-70
